Tiempo atmosférico en la estación meteorológica de Bera, Navarra (78 m.)



Fecha
DESCASC
Temp. máxima en grados centígrados (hora)
DESCASC
Temp. mínima en grados centígrados (hora)
DESCASC
Temp. media en grados centígrados
DESCASC
Racha de viento máxima en m/sg (hora)
DESCASC
Velocidad máxima media en intervalos de 10 minutos(hora)
DESCASC
Precipitaciones diarias en mm
DESCASC
Precipitaciones de 00:00 a 06:00 en mm
DESCASC
Precipitaciones de 06:00 a 12:00 en mm
DESCASC
Precipitaciones de 12:00 a 18:00 en mm
DESCASC
Precipitaciones de 18:00 a 24:00 en mm
DESCASC
13-06-2019 20.5 (12:30) 8.7 (04:20) 14.6 7.5 (15:10) 3.61 (16:20) 2.8 0 0 0.4 2.4
12-06-2019 19.8 (14:20) 9.2 (02:40) 14.5 6.94 (18:20) 3.61 (17:10) 0.2 0.2 0 0 0
11-06-2019 16.1 (16:20) 10.8 (23:59) 13.5 9.72 (17:00) 3.61 (13:10) 17.2 1.6 5.8 6 3.8
10-06-2019 17.3 (15:40) 12.5 (23:50) 14.9 6.11 (14:20) 3.33 (14:00) 0.6 0.4 0 0 0.2
09-06-2019 22.1 (13:10) 13.5 (00:00) 17.8 6.39 (13:20) 3.33 (15:30) 0.4 0.2 0 0 0.2
08-06-2019 22.1 (16:30) 6.2 (00:00) 14.2 7.22 (16:10) 3.89 (16:10) 0 0 0 0 0
07-06-2019 22.4 (00:00) 9.6 (00:00) 16 12.78 (04:10) 5.56 (14:30) 1 1 0 0 0
06-06-2019 27.1 (18:00) 10.1 (00:00) 18.6 11.39 (19:10) 4.17 (18:10) 0 0 0 0 0
05-06-2019 16.4 (17:50) 11.6 (00:00) 14 6.67 (18:20) 3.61 (18:20) 60.6 21.6 32.2 6.8 0
04-06-2019 28.5 (12:10) 14.3 (00:00) 21.4 10.28 (12:30) 4.72 (12:50) 2.8 0 0 0 2.8
03-06-2019 24.3 (16:00) 12.6 (00:00) 18.4 6.39 (14:40) 3.33 (13:40) 0 0 0 0 0
02-06-2019 29.4 (13:30) 11.6 (00:00) 20.5 7.5 (16:40) 4.17 (15:50) 0 0 0 0 0
01-06-2019 33.6 (18:00) 11.9 (00:00) 22.7 8.89 (14:20) 3.33 (11:40) 0 0 0 0 0
31-05-2019 28.7 (16:40) 11.3 (00:00) 20 5.83 (15:50) 2.5 (15:40) 0 0 0 0 0
30-05-2019 23.9 (15:00) 7.7 (00:00) 15.8 7.5 (17:40) 3.61 (15:20) 0 0 0 0 0
29-05-2019 18.8 (17:10) 9.5 (00:00) 14.1 6.67 (10:00) 3.06 (10:10) 0 0 0 0 0
28-05-2019 16.6 (12:50) 11.4 (00:00) 14 8.89 (16:50) 3.61 (16:50) 3.2 0.2 1.4 1.4 0.2
27-05-2019 16.3 (15:10) 12.4 (00:00) 14.3 8.06 (21:50) 3.06 (20:10) 6.8 1 1 2.8 2
26-05-2019 16 (15:50) 12.2 (00:00) 14.1 6.11 (16:10) 2.22 (16:10) 10.6 2.6 1.6 6.2 0.2
25-05-2019 16.2 (15:00) 13.3 (00:00) 14.8 7.22 (01:50) 3.06 (12:10) 3 0 0 2.8 0.2
24-05-2019 15.5 (16:40) 13.5 (00:00) 14.5 8.61 (18:10) 3.33 (18:10) 7.8 3.2 1.4 2.6 0.6
23-05-2019 21.2 (12:40) 10.5 (00:00) 15.9 7.22 (16:10) 3.33 (16:00) 2.6 0 0 0 2.6
22-05-2019 23.7 (18:10) 8.7 (00:00) 16.2 6.67 (15:10) 3.33 (15:20) 0 0 0 0 0
21-05-2019 19.3 (17:00) 8.2 (00:10) 13.7 6.39 (19:30) 3.06 (14:00) 0 0 0 0 0
20-05-2019 17 (18:00) 8.3 (23:59) 12.7 5.28 (18:40) 2.78 (17:30) 0.2 0 0.2 0 0
19-05-2019 12.4 (19:20) 10.1 (00:00) 11.3 11.39 (03:20) 4.72 (03:20) 102.6 40.6 25.8 20.4 15.8
18-05-2019 13.1 (13:30) 9.5 (00:00) 11.3 8.06 (13:40) 4.17 (13:40) 32.6 0.6 0.6 5.8 25.6
17-05-2019 14.2 (16:30) 10.4 (00:00) 12.3 11.67 (14:30) 5.83 (18:00) 58.2 25.8 18.8 3.2 10.4

Gráficas

Temp. máximas Temp. mínimas Temp. medias Precipitaciones Rachas de viento máximas Velocidades máximas media en intervalos de 10 minutos

Datos horarios

Fecha y hora oficial Temperatura (ºC) Velocidad del viento (km/h) Dirección del viento Racha (km/h) Dirección de racha Precipitación (mm) Presión (hPa) Tendencia (hPa) Humedad (%)
2019-06-15 23:00:00 13.2 0 Calma 5 Sur 0 -- -- 88
2019-06-15 22:00:00 15 0 Calma 9 Noroeste 0 -- -- 80
2019-06-15 21:00:00 17.6 5 Noroeste 21 Noroeste 0 -- -- 67
2019-06-15 20:00:00 18.7 9 Norte 18 Noroeste 0 -- -- 62
2019-06-15 19:00:00 19.7 9 Noroeste 20 Noroeste 0 -- -- 58
2019-06-15 18:00:00 20.5 8 Noroeste 21 Noroeste 0 -- -- 57
2019-06-15 17:00:00 20.8 7 Norte 19 Noroeste 0 -- -- 49
2019-06-15 16:00:00 20.7 8 Norte 21 Noroeste 0 -- -- 56
2019-06-15 15:00:00 20.7 6 Noroeste 17 Nordeste 0 -- -- 57
2019-06-15 14:00:00 20 5 Noroeste 16 Nordeste 0 -- -- 63
2019-06-15 13:00:00 19.3 5 Noroeste 12 Norte 0 -- -- 63
2019-06-15 12:00:00 17.9 6 Norte 13 Noroeste 0 -- -- 70
2019-06-15 11:00:00 16.5 0 Calma 4 Este 0 -- -- 75
2019-06-15 10:00:00 15.6 2 Nordeste 4 Nordeste 0 -- -- 85
2019-06-15 09:00:00 14.4 0 Calma 4 Oeste 0 -- -- 94
2019-06-15 08:00:00 13.5 0 Calma 2 Noroeste 0 -- -- 97
2019-06-15 07:00:00 13.3 0 Calma 3 Este 0.2 -- -- 97
2019-06-15 06:00:00 13.2 0 Calma 3 Sur 0 -- -- 97
2019-06-15 05:00:00 13.3 0 Calma 4 Este 0 -- -- 97
2019-06-15 04:00:00 13.4 0 Calma 3 Sudoeste 0 -- -- 96
2019-06-15 03:00:00 13.4 0 Calma 3 Nordeste 0 -- -- 96
2019-06-15 02:00:00 13.5 0 Calma 6 Sudoeste 0.8 -- -- 95
2019-06-15 01:00:00 13.6 2 Oeste 15 Oeste 1.8 -- -- 94
2019-06-15 00:00:00 14.1 5 Sudoeste 8 Noroeste 0.4 -- -- 95
2019-06-14 23:00:00 14.3 3 Sur 9 Sudoeste 0.2 -- -- 95
2019-06-14 22:00:00 14.7 0 Calma 6 Norte 0.2 -- -- 93
2019-06-14 21:00:00 15.3 2 Nordeste 6 Oeste 0 -- -- 91
2019-06-14 20:00:00 15.5 4 Oeste 8 Noroeste 0.2 -- -- 90
2019-06-14 19:00:00 15.5 2 Oeste 10 Oeste 0 -- -- 89
2019-06-14 18:00:00 16.2 3 Noroeste 11 Norte 0 -- -- 83
2019-06-14 17:00:00 16.6 3 Noroeste 12 Noroeste 0 -- -- 81
2019-06-14 16:00:00 17 3 Noroeste 12 Norte 0 -- -- 81
2019-06-14 15:00:00 16.8 7 Noroeste 14 Noroeste 0 -- -- 78
2019-06-14 14:00:00 16.4 3 Norte 11 Norte 0 -- -- 78
2019-06-14 13:00:00 16.2 4 Noroeste 13 Norte 0 -- -- 79
2019-06-14 12:00:00 16.6 5 Norte 11 Norte 0 -- -- 78
2019-06-14 11:00:00 15.8 2 Norte 5 Nordeste 0 -- -- 84
2019-06-14 10:00:00 14.2 0 Calma 5 Norte 0 -- -- 89
2019-06-14 09:00:00 12.9 3 Sudoeste 6 Sur 0 -- -- 93
2019-06-14 08:00:00 12.5 0 Calma 4 Este 0 -- -- 96
2019-06-14 07:00:00 12.4 2 Norte 4 Norte 0 -- -- 95
2019-06-14 06:00:00 12.6 0 Calma 4 Nordeste 0 -- -- 95
2019-06-14 05:00:00 12.9 0 Calma 4 Noroeste 0 -- -- 95
2019-06-14 04:00:00 13 0 Calma 3 Sudeste 0 -- -- 95
2019-06-14 03:00:00 13.1 0 Calma 3 Sur 0 -- -- 95
2019-06-14 02:00:00 13.5 0 Calma 6 Sudeste 0.2 -- -- 94
2019-06-14 01:00:00 13.9 0 Calma 7 Oeste 0.2 -- -- 92
2019-06-14 00:00:00 14.2 0 Calma 6 Sudoeste 0 -- -- 94
2019-06-13 23:00:00 14.4 0 Calma 9 Sudoeste 0 -- -- 93
2019-06-13 22:00:00 14.6 2 Sudeste 9 Norte 1.4 -- -- 93
2019-06-13 21:00:00 15.2 4 Noroeste 11 Noroeste 0.4 -- -- 88
2019-06-13 20:00:00 15.6 2 Norte 12 Norte 0.6 -- -- 87
2019-06-13 19:00:00 16.3 4 Norte 18 Noroeste 0 -- -- 83
2019-06-13 18:00:00 17.1 6 Noroeste 25 Norte 0.4 -- -- 80
2019-06-13 17:00:00 18.7 9 Norte 26 Norte 0 -- -- 70
2019-06-13 16:00:00 19.8 11 Norte 27 Noroeste 0 -- -- 67
2019-06-13 15:00:00 19.9 11 Noroeste 25 Norte 0 -- -- 66
2019-06-13 14:00:00 19.4 12 Noroeste 26 Norte 0 -- -- 70
2019-06-13 13:00:00 20.2 10 Norte 19 Noroeste 0 -- -- 66
2019-06-13 12:00:00 19.5 3 Este 9 Sudeste 0 -- -- 64
2019-06-13 11:00:00 17.7 2 Noroeste 5 Este 0 -- -- 71
2019-06-13 10:00:00 14.3 0 Calma 4 Sudeste 0 -- -- 79
2019-06-13 09:00:00 11.4 0 Calma 4 Oeste 0 -- -- 89
2019-06-13 08:00:00 10 0 Calma 5 Norte 0 -- -- 94
2019-06-13 07:00:00 9.5 3 Norte 6 Noroeste 0 -- -- 96
2019-06-13 06:00:00 9.5 0 Calma 3 Nordeste 0 -- -- 96
2019-06-13 05:00:00 9.1 0 Calma 3 Sur 0 -- -- 96
2019-06-13 04:00:00 8.9 0 Calma 2 Sudeste 0 -- -- 94
2019-06-13 03:00:00 9.6 0 Calma 5 Sudeste 0 -- -- 93
2019-06-13 02:00:00 11.1 2 Sudeste 6 Sudeste 0 -- -- 90
2019-06-13 01:00:00 13 0 Calma 2 Sudeste 0 -- -- 89
2019-06-13 00:00:00 13.4 0 Calma 2 Este 0 -- -- 88
2019-06-12 23:00:00 14.1 0 Calma 4 Norte 0 -- -- 85
2019-06-12 22:00:00 14.7 2 Nordeste 6 Norte 0 -- -- 80
2019-06-12 21:00:00 15.8 3 Norte 9 Norte 0 -- -- 68
2019-06-12 20:00:00 16.1 4 Noroeste 22 Oeste 0 -- -- 68
2019-06-12 19:00:00 17.4 9 Oeste 25 Oeste 0 -- -- 63
2019-06-12 18:00:00 19.1 9 Noroeste 23 Oeste 0 -- -- 58
2019-06-12 17:00:00 19.1 9 Noroeste 24 Oeste 0 -- -- 59
2019-06-12 16:00:00 19 9 Norte 22 Noroeste 0 -- -- 62
2019-06-12 15:00:00 18 5 Nordeste 22 Nordeste 0 -- -- 58
2019-06-12 14:00:00 18.8 7 Noroeste 20 Noroeste 0 -- -- 54
2019-06-12 13:00:00 17.6 6 Noroeste 16 Oeste 0 -- -- 54
2019-06-12 12:00:00 15.9 8 Sudoeste 24 Sudoeste 0 -- -- 53
2019-06-12 11:00:00 15.2 5 Oeste 19 Sur 0 -- -- 58
2019-06-12 10:00:00 13.6 7 Sudoeste 18 Sudoeste 0 -- -- 64
2019-06-12 09:00:00 11.7 0 Calma 6 Noroeste 0 -- -- 94
2019-06-12 08:00:00 10.1 0 Calma 8 Noroeste 0 -- -- 96
2019-06-12 07:00:00 9.7 0 Calma 4 Sur 0 -- -- 97
2019-06-12 06:00:00 9.3 0 Calma 3 Nordeste 0.2 -- -- 97
2019-06-12 05:00:00 9.4 0 Calma 5 Sudoeste 0 -- -- 96
2019-06-12 04:00:00 9.5 0 Calma 8 Sur 0 -- -- 96
2019-06-12 03:00:00 9.2 0 Calma 9 Noroeste 0 -- -- 96
2019-06-12 02:00:00 9.8 0 Calma 8 Norte 0 -- -- 95
2019-06-12 01:00:00 10.4 0 Calma 4 Nordeste 0 -- -- 96
2019-06-12 00:00:00 10.8 0 Calma 7 Nordeste 0 -- -- 94
2019-06-11 23:00:00 11.5 3 Sudeste 7 Sudeste 1 -- -- 94
2019-06-11 22:00:00 12.3 0 Calma 9 Norte 1.8 -- -- 89
2019-06-11 21:00:00 13.6 4 Noroeste 17 Oeste 0 -- -- 85
2019-06-11 20:00:00 13.8 2 Oeste 22 Noroeste 1 -- -- 84
2019-06-11 19:00:00 14.9 5 Noroeste 27 Noroeste 0 -- -- 75
2019-06-11 18:00:00 14.2 5 Noroeste 30 Oeste 1.6 -- -- 84
2019-06-11 17:00:00 15.6 12 Oeste 35 Oeste 0 -- -- 70
2019-06-11 16:00:00 14.9 6 Oeste 24 Oeste 0.2 -- -- 82
2019-06-11 15:00:00 14.4 9 Oeste 29 Oeste 1.6 -- -- 78
2019-06-11 14:00:00 14.8 10 Oeste 24 Oeste 0.2 -- -- 76
2019-06-11 13:00:00 13.7 4 Norte 19 Oeste 2.4 -- -- 84
2019-06-11 12:00:00 13.4 7 Noroeste 18 Noroeste 0.2 -- -- 86
2019-06-11 11:00:00 11.6 9 Oeste 21 Oeste 3.2 -- -- 88
2019-06-11 10:00:00 12.3 0 Calma 5 Nordeste 1.4 -- -- 88
2019-06-11 09:00:00 11.8 0 Calma 4 Nordeste 0 -- -- 93
2019-06-11 08:00:00 11 0 Calma 4 Norte 0.6 -- -- 95
2019-06-11 07:00:00 10.9 0 Calma 3 Sudeste 0.4 -- -- 95
2019-06-11 06:00:00 11.2 0 Calma 4 Noroeste 0.4 -- -- 95
2019-06-11 05:00:00 11.2 0 Calma 4 Norte 0 -- -- 95
2019-06-11 04:00:00 11.3 0 Calma 4 Sur 0 -- -- 94
2019-06-11 03:00:00 11.6 0 Calma 4 Este 0.8 -- -- 94
2019-06-11 02:00:00 11.9 0 Calma 4 Este 0.2 -- -- 94
2019-06-11 01:00:00 12.2 0 Calma 3 Norte 0.2 -- -- 92
2019-06-11 00:00:00 12.5 0 Calma 5 Sur 0 -- -- 91
2019-06-10 23:00:00 12.9 0 Calma 4 Oeste 0.2 -- -- 88
2019-06-10 22:00:00 13.6 0 Calma 4 Sur 0 -- -- 84
2019-06-10 21:00:00 14.3 0 Calma 7 Noroeste 0 -- -- 80
2019-06-10 20:00:00 14.9 3 Norte 8 Norte 0 -- -- 71
2019-06-10 19:00:00 15.6 3 Nordeste 13 Noroeste 0 -- -- 65
2019-06-10 18:00:00 16.4 5 Norte 21 Norte 0 -- -- 64
2019-06-10 17:00:00 16.6 9 Norte 22 Nordeste 0 -- -- 62
2019-06-10 16:00:00 17.2 9 Norte 22 Oeste 0 -- -- 61
2019-06-10 15:00:00 16.1 6 Oeste 22 Oeste 0 -- -- 66
2019-06-10 14:00:00 16.6 12 Oeste 21 Sudoeste 0 -- -- 65
2019-06-10 13:00:00 16.8 6 Norte 18 Norte 0 -- -- 64
2019-06-10 12:00:00 15.3 5 Norte 14 Norte 0 -- -- 72
2019-06-10 11:00:00 14.5 5 Norte 13 Norte 0 -- -- 74
2019-06-10 10:00:00 14 2 Norte 12 Noroeste 0 -- -- 79
2019-06-10 09:00:00 13.3 2 Oeste 5 Noroeste 0 -- -- 86
2019-06-10 08:00:00 13 0 Calma 5 Oeste 0 -- -- 93
2019-06-10 07:00:00 12.9 0 Calma 3 Sur 0 -- -- 93
2019-06-10 06:00:00 13 0 Calma 3 Sur 0 -- -- 93
2019-06-10 05:00:00 13.1 0 Calma 2 Norte 0 -- -- 92
2019-06-10 04:00:00 13.3 0 Calma 10 Noroeste 0 -- -- 91
2019-06-10 03:00:00 13.6 3 Oeste 14 Noroeste 0.2 -- -- 88
2019-06-10 02:00:00 14.1 4 Noroeste 17 Noroeste 0.2 -- -- 83
2019-06-10 01:00:00 14.8 3 Noroeste 18 Noroeste 0 -- -- 83
2019-06-10 00:00:00 14.9 4 Norte 13 Norte 0 -- -- 82
2019-06-09 23:00:00 15.1 5 Norte 11 Noroeste 0 -- -- 84
2019-06-09 22:00:00 15.3 6 Noroeste 14 Noroeste 0 -- -- 83
2019-06-09 21:00:00 15.6 5 Noroeste 13 Noroeste 0.2 -- -- 84
2019-06-09 20:00:00 16.4 4 Noroeste 13 Noroeste 0 -- -- 81
2019-06-09 19:00:00 17.1 5 Noroeste 19 Oeste 0 -- -- 77
2019-06-09 18:00:00 17.6 8 Noroeste 21 Oeste 0 -- -- 73
2019-06-09 17:00:00 18.2 9 Oeste 19 Noroeste 0 -- -- 72
2019-06-09 16:00:00 19.4 7 Oeste 23 Noroeste 0 -- -- 70
2019-06-09 15:00:00 19.7 7 Norte 21 Norte 0 -- -- 66
2019-06-09 14:00:00 20.9 9 Norte 23 Oeste 0 -- -- 61
2019-06-09 13:00:00 21.3 8 Noroeste 20 Noroeste 0 -- -- 62
2019-06-09 12:00:00 20.7 6 Oeste 14 Oeste 0 -- -- 63
2019-06-09 11:00:00 18.8 4 Sudoeste 10 Sudoeste 0 -- -- 72
2019-06-09 10:00:00 18.3 2 Este 4 Nordeste 0 -- -- 74
2019-06-09 09:00:00 15.5 0 Calma 4 Noroeste 0 -- -- 87
2019-06-09 08:00:00 14.1 0 Calma 3 Norte 0 -- -- 93
2019-06-09 07:00:00 13.7 0 Calma 2 Norte 0 -- -- 94
2019-06-09 06:00:00 13.6 0 Calma 4 Este 0 -- -- 95
2019-06-09 05:00:00 13.5 2 Sudeste 4 Sudeste 0 -- -- 94
2019-06-09 04:00:00 13.6 0 Calma 2 Sur 0 -- -- 94
2019-06-09 03:00:00 13.9 0 Calma 6 Sur 0 -- -- 93
2019-06-09 02:00:00 14.3 0 Calma 5 Sur 0.2 -- -- 93
2019-06-09 01:00:00 14.8 0 Calma 5 Sur 0 -- -- 90
2019-06-09 00:00:00 16.1 0 Calma 11 Oeste 0 -- -- 85
2019-06-08 23:00:00 16.1 5 Oeste 11 Oeste 0 -- -- 83
2019-06-08 22:00:00 16.3 5 Sudoeste 13 Oeste 0 -- -- 83
2019-06-08 21:00:00 16.9 5 Sudoeste 16 Norte 0 -- -- 80
2019-06-08 20:00:00 17.7 7 Norte 19 Noroeste 0 -- -- 75
2019-06-08 19:00:00 18.4 6 Norte 18 Noroeste 0 -- -- 70
2019-06-08 18:00:00 19.7 8 Noroeste 22 Este 0 -- -- 66
2019-06-08 17:00:00 21.6 10 Nordeste 26 Este 0 -- -- 50
2019-06-08 16:00:00 21.7 10 Norte 25 Norte 0 -- -- 49
2019-06-08 15:00:00 21.3 8 Nordeste 23 Nordeste 0 -- -- 46
2019-06-08 14:00:00 20.4 8 Nordeste 21 Nordeste 0 -- -- 47
2019-06-08 13:00:00 19.8 8 Nordeste 23 Nordeste 0 -- -- 47
2019-06-08 12:00:00 18.8 8 Este 22 Norte 0 -- -- 47
2019-06-08 11:00:00 17.2 3 Oeste 5 Sur 0 -- -- 62
2019-06-08 10:00:00 13.7 2 Norte 5 Sudeste 0 -- -- 77
2019-06-08 09:00:00 10.9 0 Calma 2 Nordeste 0 -- -- 83
2019-06-08 08:00:00 7.6 0 Calma 4 Este 0 -- -- 96
2019-06-08 07:00:00 7.1 0 Calma 2 Este 0 -- -- 97
2019-06-08 06:00:00 6.2 0 Calma 3 Sudeste 0 -- -- 95
2019-06-08 05:00:00 6.5 0 Calma 3 Sudeste 0 -- -- 95
2019-06-08 04:00:00 6.9 0 Calma 4 Sudeste 0 -- -- 94
2019-06-08 03:00:00 7.4 0 Calma 3 Sudeste 0 -- -- 93
2019-06-08 02:00:00 8.1 0 Calma 3 Este 0 -- -- 93
2019-06-08 01:00:00 8.8 0 Calma 4 Sudeste 0 -- -- 91
2019-06-08 00:00:00 9.6 0 Calma 4 Sudeste 0 -- -- 89
2019-06-07 23:00:00 11.1 2 Sudeste 4 Sudeste 0 -- -- 84
2019-06-07 22:00:00 13.3 0 Calma 5 Sudoeste 0 -- -- 77
2019-06-07 21:00:00 15.4 3 Oeste 22 Oeste 0 -- -- 68
2019-06-07 20:00:00 16.6 9 Oeste 30 Oeste 0 -- -- 59
2019-06-07 19:00:00 17.7 14 Oeste 30 Noroeste 0 -- -- 55
2019-06-07 18:00:00 17.4 11 Noroeste 36 Oeste 0 -- -- 55
2019-06-07 17:00:00 19.1 16 Oeste 39 Noroeste 0 -- -- 49
2019-06-07 16:00:00 19.3 15 Noroeste 35 Noroeste 0 -- -- 49
2019-06-07 15:00:00 20 15 Oeste 43 Oeste 0 -- -- 49
2019-06-07 14:00:00 19.5 17 Oeste 33 Oeste 0 -- -- 49
2019-06-07 13:00:00 18 13 Noroeste 25 Noroeste 0 -- -- 54
2019-06-07 12:00:00 18.9 8 Sudoeste 22 Sur 0 -- -- 47
2019-06-07 11:00:00 19 10 Sudoeste 30 Oeste 0 -- -- 46
2019-06-07 10:00:00 18.4 5 Sur 24 Sur 0 -- -- 48
2019-06-07 09:00:00 16.8 5 Sur 18 Sudeste 0 -- -- 53
2019-06-07 08:00:00 15.1 5 Sur 17 Sur 0 -- -- 56
2019-06-07 07:00:00 13.9 5 Sudeste 24 Sur 0 -- -- 61
2019-06-07 06:00:00 13.8 6 Sur 21 Sur 0.4 -- -- 68
2019-06-07 05:00:00 14.5 5 Sur 46 Oeste 0.6 -- -- 70
2019-06-07 04:00:00 18.4 14 Oeste 42 Oeste 0 -- -- 56
2019-06-07 03:00:00 20.8 3 Oeste 34 Sudoeste 0 -- -- 51
2019-06-07 02:00:00 21.6 5 Sudoeste 26 Sudoeste 0 -- -- 48
2019-06-07 01:00:00 22 6 Noroeste 35 Oeste 0 -- -- 46
2019-06-07 00:00:00 22.4 9 Sudoeste 25 Sur 0 -- -- 43
2019-06-06 23:00:00 22.8 8 Sudoeste 28 Oeste 0 -- -- 43
2019-06-06 22:00:00 23.4 7 Sur 22 Sudeste 0 -- -- 44
2019-06-06 21:00:00 24.5 7 Sur 30 Sudeste 0 -- -- 41
2019-06-06 20:00:00 24.7 6 Sur 41 Sur 0 -- -- 37
2019-06-06 19:00:00 25.6 8 Sudoeste 35 Norte 0 -- -- 34
2019-06-06 18:00:00 27.1 8 Sur 26 Este 0 -- -- 32
2019-06-06 17:00:00 25.8 5 Oeste 27 Sudoeste 0 -- -- 36
2019-06-06 16:00:00 24.9 10 Sudeste 37 Este 0 -- -- 36
2019-06-06 15:00:00 23.2 11 Sudoeste 25 Oeste 0 -- -- 44
2019-06-06 14:00:00 21.9 9 Este 17 Este 0 -- -- 57
2019-06-06 13:00:00 20.3 8 Este 19 Sudeste 0 -- -- 60
2019-06-06 12:00:00 18.5 2 Oeste 9 Nordeste 0 -- -- 70
2019-06-06 11:00:00 15.6 2 Nordeste 5 Sudeste 0 -- -- 76
2019-06-06 10:00:00 13.4 0 Calma 3 Oeste 0 -- -- 87
2019-06-06 09:00:00 11.1 0 Calma 4 Sudeste 0 -- -- 95
2019-06-06 08:00:00 10.5 0 Calma 3 Este 0 -- -- 96
2019-06-06 07:00:00 10.3 0 Calma 2 Sudeste 0 -- -- 96
2019-06-06 06:00:00 10.4 0 Calma 0 Calma 0 -- -- 97
2019-06-06 05:00:00 10.4 0 Calma 4 Sudeste 0 -- -- 97
2019-06-06 04:00:00 10.3 0 Calma 2 Este 0 -- -- 97
2019-06-06 03:00:00 10.2 0 Calma 3 Sudeste 0 -- -- 96
2019-06-06 02:00:00 10.2 0 Calma 4 Sudeste 0 -- -- 96
2019-06-06 01:00:00 10.7 0 Calma 4 Sur 0 -- -- 94
2019-06-06 00:00:00 11.6 0 Calma 3 Este 0 -- -- 95
2019-06-05 23:00:00 12 0 Calma 4 Este 0 -- -- 93
2019-06-05 22:00:00 13 0 Calma 6 Norte 0 -- -- 88
2019-06-05 21:00:00 14.5 2 Noroeste 13 Oeste 0 -- -- 83
2019-06-05 20:00:00 15 2 Noroeste 15 Oeste 0 -- -- 76
2019-06-05 19:00:00 15.3 9 Noroeste 24 Oeste 0 -- -- 75
2019-06-05 18:00:00 16.1 9 Noroeste 24 Oeste 0 -- -- 74
2019-06-05 17:00:00 14.5 4 Noroeste 22 Noroeste 0.4 -- -- 88
2019-06-05 16:00:00 14.4 8 Oeste 23 Sudoeste 0 -- -- 87
2019-06-05 15:00:00 13.4 5 Sudoeste 18 Oeste 2.2 -- -- 92
2019-06-05 14:00:00 13.3 0 Calma 9 Sudoeste 2.4 -- -- 94
2019-06-05 13:00:00 12.9 0 Calma 6 Oeste 1.8 -- -- 94
2019-06-05 12:00:00 12.5 0 Calma 6 Nordeste 3.6 -- -- 96
2019-06-05 11:00:00 12.2 2 Oeste 7 Nordeste 5 -- -- 96
2019-06-05 10:00:00 12.3 3 Sur 9 Oeste 6.6 -- -- 97
2019-06-05 09:00:00 12.4 2 Oeste 15 Noroeste 4 -- -- 96
2019-06-05 08:00:00 12.7 0 Calma 8 Sur 7.4 -- -- 97
2019-06-05 07:00:00 12.9 0 Calma 6 Sudeste 5.6 -- -- 96
2019-06-05 06:00:00 13 3 Sudoeste 6 Sudoeste 8 -- -- 96
2019-06-05 05:00:00 13 3 Sur 8 Sudoeste 8.8 -- -- 95
2019-06-05 04:00:00 13.9 4 Sur 9 Sudoeste 4.8 -- -- 95
2019-06-05 03:00:00 14.1 0 Calma 4 Noroeste 0 -- -- 94
2019-06-05 02:00:00 14.2 0 Calma 4 Oeste 0 -- -- 94
2019-06-05 01:00:00 14.3 0 Calma 4 Nordeste 0 -- -- 94
2019-06-05 00:00:00 14.3 0 Calma 4 Nordeste 0 -- -- 94
2019-06-04 23:00:00 14.5 0 Calma 5 Noroeste 0 -- -- 93
2019-06-04 22:00:00 14.6 0 Calma 8 Norte 0 -- -- 92
2019-06-04 21:00:00 14.9 5 Noroeste 21 Noroeste 0.2 -- -- 89
2019-06-04 20:00:00 15.6 0 Calma 34 Oeste 1.8 -- -- 90
2019-06-04 19:00:00 17.6 6 Sudoeste 17 Oeste 0.8 -- -- 83
2019-06-04 18:00:00 19 4 Nordeste 17 Noroeste 0 -- -- 69
2019-06-04 17:00:00 19.3 8 Noroeste 21 Noroeste 0 -- -- 69
2019-06-04 16:00:00 19.7 7 Norte 20 Noroeste 0 -- -- 76
2019-06-04 15:00:00 20.1 6 Norte 20 Norte 0 -- -- 78
2019-06-04 14:00:00 21.4 10 Norte 37 Norte 0 -- -- 77
2019-06-04 13:00:00 23.7 14 Norte 37 Noroeste 0 -- -- 70
2019-06-04 12:00:00 28.2 9 Sur 26 Este 0 -- -- 37
2019-06-04 11:00:00 26.5 7 Sur 20 Sur 0 -- -- 38
2019-06-04 10:00:00 21.8 3 Norte 16 Sur 0 -- -- 70
2019-06-04 09:00:00 18.8 0 Calma 0 Calma 0 -- -- 85
2019-06-04 08:00:00 16 0 Calma 0 Calma 0 -- -- 95
2019-06-04 07:00:00 14.5 0 Calma 0 Calma 0 -- -- 95
2019-06-04 06:00:00 14.8 0 Calma 0 Calma 0 -- -- 93
2019-06-04 05:00:00 16.4 0 Calma 0 Calma 0 -- -- 91
2019-06-04 04:00:00 18.1 0 Calma 0 Calma 0 -- -- 90
2019-06-04 03:00:00 18.2 0 Calma 0 Calma 0 -- -- 90
2019-06-04 02:00:00 18.6 0 Calma 2 Este 0 -- -- 88
2019-06-04 01:00:00 18.8 0 Calma 4 Nordeste 0 -- -- 86
2019-06-04 00:00:00 19 0 Calma 4 Noroeste 0 -- -- 84
2019-06-03 23:00:00 19 0 Calma 8 Noroeste 0 -- -- 84
2019-06-03 22:00:00 19 4 Noroeste 18 Noroeste 0 -- -- 84
2019-06-03 21:00:00 20 9 Noroeste 19 Noroeste 0 -- -- 79
2019-06-03 20:00:00 22 8 Noroeste 18 Noroeste 0 -- -- 70
2019-06-03 19:00:00 23.2 8 Noroeste 19 Noroeste 0 -- -- 67
2019-06-03 18:00:00 23.7 8 Noroeste 20 Norte 0 -- -- 65
2019-06-03 17:00:00 23.6 9 Norte 21 Noroeste 0 -- -- 65
2019-06-03 16:00:00 24.3 9 Noroeste 20 Noroeste 0 -- -- 65
2019-06-03 15:00:00 23.4 9 Noroeste 23 Noroeste 0 -- -- 66
2019-06-03 14:00:00 23.6 11 Noroeste 22 Noroeste 0 -- -- 66
2019-06-03 13:00:00 23.7 5 Este 14 Sudeste 0 -- -- 61
2019-06-03 12:00:00 22.6 5 Oeste 12 Noroeste 0 -- -- 64
2019-06-03 11:00:00 20.4 4 Sudoeste 8 Oeste 0 -- -- 75
2019-06-03 10:00:00 16.6 0 Calma 4 Sudeste 0 -- -- 82
2019-06-03 09:00:00 14.6 0 Calma 3 Oeste 0 -- -- 89
2019-06-03 08:00:00 13.3 0 Calma 5 Nordeste 0 -- -- 95
2019-06-03 07:00:00 12.6 0 Calma 4 Sudeste 0 -- -- 94
2019-06-03 06:00:00 12.8 2 Este 4 Sur 0 -- -- 94
2019-06-03 05:00:00 12.9 0 Calma 3 Sudeste 0 -- -- 93
2019-06-03 04:00:00 13.4 0 Calma 4 Noroeste 0 -- -- 93
2019-06-03 03:00:00 13.1 0 Calma 3 Este 0 -- -- 92
2019-06-03 02:00:00 13.9 0 Calma 3 Sudeste 0 -- -- 90
2019-06-03 01:00:00 14.6 0 Calma 3 Sudeste 0 -- -- 89
2019-06-03 00:00:00 15.3 0 Calma 5 Sudeste 0 -- -- 85
2019-06-02 23:00:00 16.5 2 Sudeste 5 Sudeste 0 -- -- 81
2019-06-02 22:00:00 18.6 2 Sudeste 8 Norte 0 -- -- 77
2019-06-02 21:00:00 20.9 2 Este 6 Nordeste 0 -- -- 69
2019-06-02 20:00:00 22.5 4 Nordeste 19 Norte 0 -- -- 55
2019-06-02 19:00:00 24.3 8 Nordeste 22 Norte 0 -- -- 49
2019-06-02 18:00:00 26.3 7 Norte 23 Noroeste 0 -- -- 49
2019-06-02 17:00:00 26.4 12 Noroeste 27 Noroeste 0 -- -- 43
2019-06-02 16:00:00 26.8 13 Noroeste 27 Noroeste 0 -- -- 49
2019-06-02 15:00:00 27.8 13 Noroeste 24 Noroeste 0 -- -- 48
2019-06-02 14:00:00 28.4 11 Norte 21 Norte 0 -- -- 51
2019-06-02 13:00:00 29.2 5 Noroeste 15 Sudeste 0 -- -- 53
2019-06-02 12:00:00 27.7 5 Sudeste 14 Este 0 -- -- 54
2019-06-02 11:00:00 24.3 2 Sudeste 5 Este 0 -- -- 60
2019-06-02 10:00:00 20.3 0 Calma 3 Norte 0 -- -- 71
2019-06-02 09:00:00 16.8 0 Calma 4 Noroeste 0 -- -- 81
2019-06-02 08:00:00 13.1 0 Calma 3 Sudoeste 0 -- -- 95
2019-06-02 07:00:00 11.6 0 Calma 3 Nordeste 0 -- -- 95
2019-06-02 06:00:00 11.8 0 Calma 2 Sudeste 0 -- -- 95
2019-06-02 05:00:00 12.3 0 Calma 4 Sur 0 -- -- 94
2019-06-02 04:00:00 12.9 0 Calma 4 Sudeste 0 -- -- 94
2019-06-02 03:00:00 13.3 0 Calma 3 Este 0 -- -- 93
2019-06-02 02:00:00 14 0 Calma 2 Sudeste 0 -- -- 92
2019-06-02 01:00:00 14.8 0 Calma 2 Sudeste 0 -- -- 90
2019-06-02 00:00:00 16 0 Calma 3 Sur 0 -- -- 88
2019-06-01 23:00:00 17.4 0 Calma 4 Este 0 -- -- 83
2019-06-01 22:00:00 20.3 0 Calma 2 Este 0 -- -- 77
2019-06-01 21:00:00 24.9 0 Calma 4 Norte 0 -- -- 68
2019-06-01 20:00:00 29.5 2 Nordeste 5 Noroeste 0 -- -- 49
2019-06-01 19:00:00 32.7 3 Sudeste 13 Este 0 -- -- 40
2019-06-01 18:00:00 33.6 3 Sur 14 Sudeste 0 -- -- 31
2019-06-01 17:00:00 33.1 6 Sur 15 Sur 0 -- -- 32
2019-06-01 16:00:00 32.4 8 Sur 16 Sudoeste 0 -- -- 36
2019-06-01 15:00:00 31.9 5 Sur 32 Sudoeste 0 -- -- 35
2019-06-01 14:00:00 30.9 9 Sur 21 Sudoeste 0 -- -- 37
2019-06-01 13:00:00 30 9 Sur 23 Sudeste 0 -- -- 40
2019-06-01 12:00:00 28.7 10 Sudeste 28 Sur 0 -- -- 39
2019-06-01 11:00:00 26.8 6 Sur 18 Sur 0 -- -- 48
2019-06-01 10:00:00 20.8 0 Calma 5 Norte 0 -- -- 79
2019-06-01 09:00:00 16.4 0 Calma 3 Nordeste 0 -- -- 87
2019-06-01 08:00:00 12.7 0 Calma 2 Este 0 -- -- 98
2019-06-01 07:00:00 12.2 0 Calma 2 Nordeste 0 -- -- 98
2019-06-01 06:00:00 12.2 0 Calma 2 Sudeste 0 -- -- 97
2019-06-01 05:00:00 12.3 0 Calma 2 Nordeste 0 -- -- 96
2019-06-01 04:00:00 12.1 0 Calma 0 Calma 0 -- -- 96
2019-06-01 03:00:00 12.2 0 Calma 2 Sudeste 0 -- -- 95
2019-06-01 02:00:00 13 0 Calma 2 Sudeste 0 -- -- 93
2019-06-01 01:00:00 13.9 0 Calma 2 Sudeste 0 -- -- 92
2019-06-01 00:00:00 15.1 0 Calma 2 Sudeste 0 -- -- 90
2019-05-31 23:00:00 16.6 0 Calma 4 Sudeste 0 -- -- 88
2019-05-31 22:00:00 19.3 0 Calma 5 Sudeste 0 -- -- 79
2019-05-31 21:00:00 23.5 2 Noroeste 11 Oeste 0 -- -- 66
2019-05-31 20:00:00 25.9 6 Noroeste 16 Noroeste 0 -- -- 57
2019-05-31 19:00:00 26.9 7 Noroeste 19 Noroeste 0 -- -- 55
2019-05-31 18:00:00 28.6 5 Norte 18 Noroeste 0 -- -- 49
2019-05-31 17:00:00 28.6 7 Nordeste 18 Este 0 -- -- 47
2019-05-31 16:00:00 28.4 7 Este 21 Sudeste 0 -- -- 48
2019-05-31 15:00:00 28 6 Este 20 Sudeste 0 -- -- 50
2019-05-31 14:00:00 27.2 5 Este 16 Sudeste 0 -- -- 53
2019-05-31 13:00:00 25.7 8 Nordeste 14 Nordeste 0 -- -- 57
2019-05-31 12:00:00 24.4 2 Sur 5 Sudeste 0 -- -- 64
2019-05-31 11:00:00 20.3 2 Norte 5 Norte 0 -- -- 74
2019-05-31 10:00:00 15.7 0 Calma 4 Nordeste 0 -- -- 91
2019-05-31 09:00:00 12.4 0 Calma 3 Sur 0 -- -- 98
2019-05-31 08:00:00 11.8 0 Calma 5 Sudeste 0 -- -- 98
2019-05-31 07:00:00 11.6 3 Sudeste 6 Sudeste 0 -- -- 97
2019-05-31 06:00:00 11.9 0 Calma 2 Sudeste 0 -- -- 97
2019-05-31 05:00:00 12.1 0 Calma 2 Este 0 -- -- 97
2019-05-31 04:00:00 12.1 0 Calma 0 Calma 0 -- -- 97
2019-05-31 03:00:00 11.5 0 Calma 2 Sudeste 0 -- -- 96
2019-05-31 02:00:00 11.5 0 Calma 2 Sudeste 0 -- -- 94
2019-05-31 01:00:00 12.3 0 Calma 3 Sudeste 0 -- -- 93
2019-05-31 00:00:00 13.1 0 Calma 3 Este 0 -- -- 92
2019-05-30 23:00:00 14.3 2 Sudeste 5 Este 0 -- -- 89
2019-05-30 22:00:00 16.5 2 Sudeste 5 Noroeste 0 -- -- 83
2019-05-30 21:00:00 19.2 3 Oeste 21 Noroeste 0 -- -- 72
2019-05-30 20:00:00 20.4 12 Noroeste 21 Oeste 0 -- -- 70
2019-05-30 19:00:00 21.6 11 Noroeste 26 Noroeste 0 -- -- 63
2019-05-30 18:00:00 22.5 10 Norte 27 Norte 0 -- -- 63
2019-05-30 17:00:00 23.4 11 Norte 22 Nordeste 0 -- -- 64
2019-05-30 16:00:00 23.7 10 Noroeste 24 Noroeste 0 -- -- 62
2019-05-30 15:00:00 23.9 4 Este 19 Este 0 -- -- 55
2019-05-30 14:00:00 22.9 4 Sudeste 19 Este 0 -- -- 55
2019-05-30 13:00:00 22 8 Sudeste 20 Este 0 -- -- 57
2019-05-30 12:00:00 19.9 2 Sur 6 Sudoeste 0 -- -- 61
2019-05-30 11:00:00 17 2 Este 4 Este 0 -- -- 73
2019-05-30 10:00:00 13.1 0 Calma 4 Noroeste 0 -- -- 83
2019-05-30 09:00:00 9.4 0 Calma 4 Este 0 -- -- 95
2019-05-30 08:00:00 8.8 0 Calma 3 Sudeste 0 -- -- 97
2019-05-30 07:00:00 8.5 0 Calma 5 Sudeste 0 -- -- 97
2019-05-30 06:00:00 8.6 3 Este 4 Sudeste 0 -- -- 97
2019-05-30 05:00:00 8.7 0 Calma 3 Noroeste 0 -- -- 97
2019-05-30 04:00:00 8.6 0 Calma 2 Norte 0 -- -- 97
2019-05-30 03:00:00 7.9 0 Calma 0 Calma 0 -- -- 96
2019-05-30 02:00:00 8.1 0 Calma 4 Sudeste 0 -- -- 95
2019-05-30 01:00:00 8.7 0 Calma 3 Sudeste 0 -- -- 93
2019-05-30 00:00:00 9.5 0 Calma 2 Este 0 -- -- 92
2019-05-29 23:00:00 10.7 0 Calma 3 Sudeste 0 -- -- 90
2019-05-29 22:00:00 12.8 0 Calma 4 Sudoeste 0 -- -- 83
2019-05-29 21:00:00 15.4 2 Norte 10 Noroeste 0 -- -- 72
2019-05-29 20:00:00 16.5 4 Norte 15 Norte 0 -- -- 63
2019-05-29 19:00:00 17 7 Noroeste 19 Norte 0 -- -- 64
2019-05-29 18:00:00 17.6 6 Norte 21 Noroeste 0 -- -- 62
2019-05-29 17:00:00 18.6 9 Noroeste 21 Noroeste 0 -- -- 61
2019-05-29 16:00:00 17.8 8 Norte 23 Norte 0 -- -- 64
2019-05-29 15:00:00 18.5 9 Norte 22 Norte 0 -- -- 62
2019-05-29 14:00:00 18.5 7 Norte 21 Nordeste 0 -- -- 63
2019-05-29 13:00:00 17.1 8 Noroeste 17 Oeste 0 -- -- 65
2019-05-29 12:00:00 16.4 9 Noroeste 23 Noroeste 0 -- -- 66
2019-05-29 11:00:00 15.4 8 Noroeste 23 Noroeste 0 -- -- 71
2019-05-29 10:00:00 15.6 10 Noroeste 24 Oeste 0 -- -- 71
2019-05-29 09:00:00 14.6 3 Noroeste 10 Noroeste 0 -- -- 80
2019-05-29 08:00:00 12.4 2 Sudeste 8 Sudoeste 0 -- -- 96
2019-05-29 07:00:00 11.7 0 Calma 3 Nordeste 0 -- -- 94
2019-05-29 06:00:00 12.1 0 Calma 8 Sudoeste 0 -- -- 91
2019-05-29 05:00:00 12.8 4 Sudoeste 23 Noroeste 0 -- -- 85
2019-05-29 04:00:00 12.5 2 Este 9 Oeste 0 -- -- 90
2019-05-29 03:00:00 13.3 2 Noroeste 8 Noroeste 0 -- -- 85
2019-05-29 02:00:00 13.7 4 Noroeste 19 Noroeste 0 -- -- 81
2019-05-29 01:00:00 13.7 4 Noroeste 20 Noroeste 0 -- -- 81
2019-05-29 00:00:00 13.9 3 Noroeste 20 Noroeste 0 -- -- 80
2019-05-28 23:00:00 14.1 6 Oeste 23 Oeste 0 -- -- 79
2019-05-28 22:00:00 14.1 8 Noroeste 28 Noroeste 0 -- -- 77
2019-05-28 21:00:00 14.3 6 Oeste 31 Oeste 0 -- -- 77
2019-05-28 20:00:00 14.6 4 Oeste 25 Oeste 0 -- -- 79
2019-05-28 19:00:00 14.9 8 Oeste 23 Norte 0.2 -- -- 79
2019-05-28 18:00:00 15.6 7 Noroeste 30 Noroeste 0 -- -- 72
2019-05-28 17:00:00 15.5 11 Oeste 32 Oeste 0.6 -- -- 74
2019-05-28 16:00:00 15.2 8 Noroeste 23 Oeste 0 -- -- 75
2019-05-28 15:00:00 15.5 4 Oeste 26 Oeste 0 -- -- 74
2019-05-28 14:00:00 14.5 5 Noroeste 24 Oeste 0.8 -- -- 87
2019-05-28 13:00:00 16.2 12 Oeste 28 Oeste 0 -- -- 70
2019-05-28 12:00:00 15.7 8 Oeste 28 Oeste 0 -- -- 78
2019-05-28 11:00:00 15.1 8 Oeste 19 Noroeste 0 -- -- 82
2019-05-28 10:00:00 12.8 6 Sudoeste 26 Oeste 1 -- -- 93
2019-05-28 09:00:00 12.6 8 Oeste 15 Oeste 0.2 -- -- 94
2019-05-28 08:00:00 11.9 0 Calma 5 Sudeste 0.2 -- -- 97
2019-05-28 07:00:00 11.4 0 Calma 5 Sudeste 0 -- -- 96
2019-05-28 06:00:00 11.6 2 Sur 5 Sudoeste 0 -- -- 97
2019-05-28 05:00:00 11.6 2 Sudeste 5 Sudeste 0 -- -- 97
2019-05-28 04:00:00 11.6 0 Calma 8 Norte 0 -- -- 96
2019-05-28 03:00:00 11.5 0 Calma 4 Sudoeste 0.2 -- -- 97
2019-05-28 02:00:00 11.6 0 Calma 4 Sudoeste 0 -- -- 96
2019-05-28 01:00:00 11.6 0 Calma 7 Sudeste 0 -- -- 94
2019-05-28 00:00:00 12.4 2 Sudeste 16 Noroeste 0 -- -- 90
2019-05-27 23:00:00 13.7 2 Oeste 10 Oeste 0 -- -- 91
2019-05-27 22:00:00 13.9 5 Oeste 29 Oeste 0.8 -- -- 90
2019-05-27 21:00:00 14.7 9 Noroeste 22 Oeste 0.2 -- -- 87
2019-05-27 20:00:00 15.4 7 Noroeste 28 Noroeste 0 -- -- 88
2019-05-27 19:00:00 15.4 6 Noroeste 20 Oeste 1 -- -- 92
2019-05-27 18:00:00 15.6 6 Oeste 17 Noroeste 1 -- -- 93
2019-05-27 17:00:00 15.9 4 Noroeste 9 Oeste 1.6 -- -- 93
2019-05-27 16:00:00 16 3 Este 9 Noroeste 0.2 -- -- 89
2019-05-27 15:00:00 16.2 4 Oeste 15 Noroeste 0 -- -- 86
2019-05-27 14:00:00 15.9 5 Oeste 12 Oeste 0 -- -- 84
2019-05-27 13:00:00 15.9 4 Noroeste 13 Noroeste 0 -- -- 86
2019-05-27 12:00:00 15.6 3 Noroeste 9 Nordeste 0 -- -- 87
2019-05-27 11:00:00 14.5 0 Calma 11 Oeste 0 -- -- 91
2019-05-27 10:00:00 14.3 3 Oeste 6 Oeste 0 -- -- 90
2019-05-27 09:00:00 13.4 0 Calma 2 Este 0 -- -- 96
2019-05-27 08:00:00 13 0 Calma 3 Norte 0.2 -- -- 97
2019-05-27 07:00:00 12.7 0 Calma 2 Este 0.8 -- -- 97
2019-05-27 06:00:00 12.7 0 Calma 2 Este 0.2 -- -- 97
2019-05-27 05:00:00 12.6 0 Calma 6 Sur 0 -- -- 97
2019-05-27 04:00:00 12.7 3 Sudoeste 11 Oeste 0.2 -- -- 96
2019-05-27 03:00:00 12.8 0 Calma 5 Sur 0 -- -- 96
2019-05-27 02:00:00 13 0 Calma 4 Este 0.4 -- -- 96
2019-05-27 01:00:00 13.2 0 Calma 2 Sudeste 0.2 -- -- 96
2019-05-27 00:00:00 13.3 0 Calma 3 Nordeste 0 -- -- 96
2019-05-26 23:00:00 13.6 0 Calma 4 Sudoeste 0.2 -- -- 94
2019-05-26 22:00:00 13.9 0 Calma 9 Oeste 0 -- -- 93
2019-05-26 21:00:00 14.5 6 Noroeste 14 Noroeste 0 -- -- 89
2019-05-26 20:00:00 15.3 3 Noroeste 13 Oeste 0 -- -- 88
2019-05-26 19:00:00 15.8 4 Oeste 10 Noroeste 0 -- -- 86
2019-05-26 18:00:00 15.6 2 Sudeste 8 Noroeste 0.4 -- -- 89
2019-05-26 17:00:00 15.3 4 Noroeste 22 Norte 0.8 -- -- 91
2019-05-26 16:00:00 15.9 5 Norte 11 Norte 0.6 -- -- 88
2019-05-26 15:00:00 15.3 2 Norte 10 Norte 1.8 -- -- 93
2019-05-26 14:00:00 15 5 Noroeste 18 Oeste 1 -- -- 92
2019-05-26 13:00:00 14.6 2 Sudoeste 7 Este 1.6 -- -- 94
2019-05-26 12:00:00 14.2 0 Calma 6 Nordeste 1.4 -- -- 92
2019-05-26 11:00:00 14.3 3 Oeste 10 Oeste 0.2 -- -- 92
2019-05-26 10:00:00 13.9 0 Calma 5 Sur 0 -- -- 93
2019-05-26 09:00:00 12.9 2 Oeste 5 Oeste 0 -- -- 96
2019-05-26 08:00:00 12.4 0 Calma 4 Este 0 -- -- 96
2019-05-26 07:00:00 12.2 0 Calma 6 Sudeste 0 -- -- 96
2019-05-26 06:00:00 12.5 3 Este 9 Sudeste 0 -- -- 95
2019-05-26 05:00:00 12.6 0 Calma 4 Sudeste 1 -- -- 96
2019-05-26 04:00:00 12.7 0 Calma 4 Sur 0.6 -- -- 96
2019-05-26 03:00:00 12.8 0 Calma 2 Norte 1 -- -- 95
2019-05-26 02:00:00 12.9 0 Calma 6 Sudeste 0 -- -- 93
2019-05-26 01:00:00 13 0 Calma 6 Sudeste 0 -- -- 93
2019-05-26 00:00:00 13.3 0 Calma 9 Noroeste 0 -- -- 92
2019-05-25 23:00:00 13.4 2 Sudoeste 5 Nordeste 0.2 -- -- 90
2019-05-25 22:00:00 14.2 4 Oeste 18 Oeste 0 -- -- 84
2019-05-25 21:00:00 14.8 2 Noroeste 17 Noroeste 0 -- -- 78
2019-05-25 20:00:00 15.3 6 Noroeste 15 Noroeste 0 -- -- 78
2019-05-25 19:00:00 15.3 7 Noroeste 21 Oeste 0 -- -- 80
2019-05-25 18:00:00 14.9 6 Noroeste 19 Norte 0.8 -- -- 86
2019-05-25 17:00:00 15.5 9 Norte 25 Oeste 0.6 -- -- 85
2019-05-25 16:00:00 15.9 7 Noroeste 21 Norte 0 -- -- 85
2019-05-25 15:00:00 16.2 5 Noroeste 20 Norte 0.4 -- -- 85
2019-05-25 14:00:00 15.1 6 Oeste 18 Oeste 0.8 -- -- 89
2019-05-25 13:00:00 15.9 8 Oeste 25 Oeste 0.2 -- -- 82
2019-05-25 12:00:00 15.9 7 Noroeste 23 Noroeste 0 -- -- 81
2019-05-25 11:00:00 15.1 5 Noroeste 20 Noroeste 0 -- -- 84
2019-05-25 10:00:00 14.9 9 Oeste 21 Noroeste 0 -- -- 81
2019-05-25 09:00:00 14.5 5 Noroeste 22 Oeste 0 -- -- 83
2019-05-25 08:00:00 14.4 6 Oeste 23 Noroeste 0 -- -- 84
2019-05-25 07:00:00 14.3 8 Oeste 22 Oeste 0 -- -- 84
2019-05-25 06:00:00 14.2 5 Noroeste 19 Oeste 0 -- -- 83
2019-05-25 05:00:00 14.1 6 Oeste 23 Noroeste 0 -- -- 84
2019-05-25 04:00:00 14.2 10 Noroeste 24 Oeste 0 -- -- 82
2019-05-25 03:00:00 14.2 10 Oeste 22 Oeste 0 -- -- 82
2019-05-25 02:00:00 14.4 6 Noroeste 26 Oeste 0 -- -- 84
2019-05-25 01:00:00 14.4 8 Noroeste 17 Oeste 0 -- -- 83
2019-05-25 00:00:00 14.4 5 Noroeste 18 Noroeste 0 -- -- 84
2019-05-24 23:00:00 14.6 8 Oeste 24 Oeste 0 -- -- 83
2019-05-24 22:00:00 14.5 6 Noroeste 21 Oeste 0 -- -- 84
2019-05-24 21:00:00 14.7 10 Oeste 24 Noroeste 0 -- -- 83
2019-05-24 20:00:00 14.5 11 Oeste 26 Oeste 0.6 -- -- 87
2019-05-24 19:00:00 15 6 Noroeste 31 Oeste 0 -- -- 85
2019-05-24 18:00:00 15.3 9 Noroeste 26 Oeste 0 -- -- 84
2019-05-24 17:00:00 15.3 10 Noroeste 30 Oeste 0.2 -- -- 86
2019-05-24 16:00:00 14.7 9 Oeste 23 Oeste 0 -- -- 90
2019-05-24 15:00:00 14.4 8 Oeste 28 Oeste 1 -- -- 91
2019-05-24 14:00:00 14.5 8 Oeste 18 Oeste 1 -- -- 91
2019-05-24 13:00:00 14.6 6 Oeste 21 Noroeste 0.4 -- -- 90
2019-05-24 12:00:00 14.4 7 Oeste 15 Oeste 0.4 -- -- 90
2019-05-24 11:00:00 14.5 6 Noroeste 19 Sudoeste 0 -- -- 86
2019-05-24 10:00:00 14.1 5 Noroeste 20 Oeste 0 -- -- 90
2019-05-24 09:00:00 13.7 6 Oeste 17 Oeste 0 -- -- 92
2019-05-24 08:00:00 13.5 4 Noroeste 25 Noroeste 0.2 -- -- 93
2019-05-24 07:00:00 13.8 8 Oeste 22 Oeste 0.8 -- -- 93
2019-05-24 06:00:00 13.9 8 Oeste 22 Noroeste 0.2 -- -- 94
2019-05-24 05:00:00 13.9 8 Oeste 18 Oeste 1.2 -- -- 95
2019-05-24 04:00:00 14 8 Oeste 19 Oeste 1 -- -- 94
2019-05-24 03:00:00 14.1 8 Oeste 21 Oeste 0 -- -- 93
2019-05-24 02:00:00 14.3 2 Oeste 12 Oeste 0.2 -- -- 93
2019-05-24 01:00:00 14.5 0 Calma 3 Sur 0.6 -- -- 94
2019-05-24 00:00:00 14.6 0 Calma 5 Sudeste 2.6 -- -- 92
2019-05-23 23:00:00 15.4 3 Oeste 9 Oeste 0 -- -- 82
2019-05-23 22:00:00 15.6 5 Oeste 12 Noroeste 0 -- -- 80
2019-05-23 21:00:00 16 4 Noroeste 13 Oeste 0 -- -- 76
2019-05-23 20:00:00 16.8 5 Noroeste 17 Oeste 0 -- -- 73
2019-05-23 19:00:00 17.2 4 Noroeste 11 Noroeste 0 -- -- 72
2019-05-23 18:00:00 17.6 3 Norte 21 Noroeste 0 -- -- 69
2019-05-23 17:00:00 19.4 7 Noroeste 26 Oeste 0 -- -- 60
2019-05-23 16:00:00 20.4 12 Oeste 24 Oeste 0 -- -- 57
2019-05-23 15:00:00 20.3 11 Oeste 23 Oeste 0 -- -- 65
2019-05-23 14:00:00 20.5 8 Noroeste 22 Noroeste 0 -- -- 70
2019-05-23 13:00:00 21 8 Norte 19 Oeste 0 -- -- 66
2019-05-23 12:00:00 19.1 0 Calma 4 Sudoeste 0 -- -- 70
2019-05-23 11:00:00 18 0 Calma 4 Sur 0 -- -- 73
2019-05-23 10:00:00 15.5 0 Calma 3 Sudoeste 0 -- -- 80
2019-05-23 09:00:00 12.3 0 Calma 3 Oeste 0 -- -- 96
2019-05-23 08:00:00 10.6 0 Calma 3 Sudeste 0 -- -- 98
2019-05-23 07:00:00 10.5 2 Este 3 Este 0 -- -- 97
2019-05-23 06:00:00 11.1 0 Calma 4 Nordeste 0 -- -- 97
2019-05-23 05:00:00 11.8 0 Calma 3 Nordeste 0 -- -- 97
2019-05-23 04:00:00 11.8 0 Calma 2 Norte 0 -- -- 97
2019-05-23 03:00:00 11.2 0 Calma 3 Sudeste 0 -- -- 96
2019-05-23 02:00:00 11.4 0 Calma 3 Sudeste 0 -- -- 94
2019-05-23 01:00:00 11.9 0 Calma 4 Sudeste 0 -- -- 93
2019-05-23 00:00:00 12.7 0 Calma 4 Sudeste 0 -- -- 92
2019-05-22 23:00:00 14.1 0 Calma 3 Sudeste 0 -- -- 89
2019-05-22 22:00:00 16.4 0 Calma 8 Noroeste 0 -- -- 84
2019-05-22 21:00:00 19.5 5 Noroeste 13 Noroeste 0 -- -- 74
2019-05-22 20:00:00 21.7 9 Noroeste 17 Noroeste 0 -- -- 66
2019-05-22 19:00:00 22.9 8 Norte 18 Noroeste 0 -- -- 56
2019-05-22 18:00:00 23.6 7 Noroeste 18 Noroeste 0 -- -- 61
2019-05-22 17:00:00 23.6 8 Norte 19 Nordeste 0 -- -- 59
2019-05-22 16:00:00 23.2 10 Norte 24 Noroeste 0 -- -- 54
2019-05-22 15:00:00 22.1 8 Norte 18 Norte 0 -- -- 60
2019-05-22 14:00:00 22 6 Este 18 Este 0 -- -- 60
2019-05-22 13:00:00 20.7 6 Este 17 Nordeste 0 -- -- 64
2019-05-22 12:00:00 19.5 6 Este 17 Nordeste 0 -- -- 65
2019-05-22 11:00:00 17.1 4 Sudoeste 6 Sur 0 -- -- 79
2019-05-22 10:00:00 13.8 0 Calma 4 Sudoeste 0 -- -- 86
2019-05-22 09:00:00 11.6 0 Calma 2 Nordeste 0 -- -- 93
2019-05-22 08:00:00 10.7 0 Calma 2 Norte 0 -- -- 95
2019-05-22 07:00:00 10.1 0 Calma 2 Nordeste 0 -- -- 96
2019-05-22 06:00:00 9.9 0 Calma 2 Este 0 -- -- 97
2019-05-22 05:00:00 9.7 0 Calma 4 Noroeste 0 -- -- 97
2019-05-22 04:00:00 9.5 0 Calma 2 Nordeste 0 -- -- 97
2019-05-22 03:00:00 8.9 0 Calma 2 Este 0 -- -- 96
2019-05-22 02:00:00 9 0 Calma 4 Sudeste 0 -- -- 94
2019-05-22 01:00:00 9.9 0 Calma 4 Sudeste 0 -- -- 93
2019-05-22 00:00:00 10.7 0 Calma 4 Sudeste 0 -- -- 93
2019-05-21 23:00:00 11.2 0 Calma 4 Oeste 0 -- -- 89
2019-05-21 22:00:00 13.2 0 Calma 13 Norte 0 -- -- 85
2019-05-21 21:00:00 15.2 6 Noroeste 19 Noroeste 0 -- -- 76
2019-05-21 20:00:00 16.5 8 Noroeste 23 Noroeste 0 -- -- 71
2019-05-21 19:00:00 17.5 7 Noroeste 18 Noroeste 0 -- -- 68
2019-05-21 18:00:00 18.8 9 Noroeste 21 Noroeste 0 -- -- 68
2019-05-21 17:00:00 19.3 9 Noroeste 23 Nordeste 0 -- -- 65
2019-05-21 16:00:00 18.7 9 Norte 22 Norte 0 -- -- 68
2019-05-21 15:00:00 17.9 9 Norte 22 Noroeste 0 -- -- 66
2019-05-21 14:00:00 17.2 11 Norte 22 Nordeste 0 -- -- 69
2019-05-21 13:00:00 16.9 8 Norte 17 Norte 0 -- -- 67
2019-05-21 12:00:00 17.3 5 Nordeste 10 Nordeste 0 -- -- 63
2019-05-21 11:00:00 16.4 4 Este 12 Nordeste 0 -- -- 69
2019-05-21 10:00:00 12.4 2 Sudoeste 5 Noroeste 0 -- -- 93
2019-05-21 09:00:00 9.8 0 Calma 3 Este 0 -- -- 98
2019-05-21 08:00:00 9.1 0 Calma 3 Este 0 -- -- 98
2019-05-21 07:00:00 8.8 0 Calma 4 Sudeste 0 -- -- 98
2019-05-21 06:00:00 9 2 Nordeste 5 Norte 0 -- -- 98
2019-05-21 05:00:00 9.3 2 Norte 4 Nordeste 0 -- -- 98
2019-05-21 04:00:00 9.4 0 Calma 3 Sudeste 0 -- -- 97
2019-05-21 03:00:00 9.4 2 Nordeste 4 Nordeste 0 -- -- 97
2019-05-21 02:00:00 9.2 0 Calma 0 Calma 0 -- -- 97
2019-05-21 01:00:00 8.5 0 Calma 3 Sur 0 -- -- 97
2019-05-21 00:00:00 8.3 0 Calma 3 Sudeste 0 -- -- 93
2019-05-20 23:00:00 9.6 0 Calma 4 Sudeste 0 -- -- 91
2019-05-20 22:00:00 11.8 0 Calma 6 Oeste 0 -- -- 88
2019-05-20 21:00:00 14.3 3 Noroeste 12 Noroeste 0 -- -- 80
2019-05-20 20:00:00 15.5 6 Noroeste 17 Noroeste 0 -- -- 76
2019-05-20 19:00:00 16.2 7 Noroeste 19 Noroeste 0 -- -- 70
2019-05-20 18:00:00 17 9 Noroeste 19 Noroeste 0 -- -- 70
2019-05-20 17:00:00 16.1 8 Noroeste 18 Noroeste 0 -- -- 72
2019-05-20 16:00:00 15.9 7 Norte 16 Norte 0 -- -- 80
2019-05-20 15:00:00 16.4 4 Noroeste 14 Oeste 0 -- -- 79
2019-05-20 14:00:00 15.6 4 Noroeste 15 Noroeste 0 -- -- 80
2019-05-20 13:00:00 14.8 7 Noroeste 17 Noroeste 0 -- -- 84
2019-05-20 12:00:00 13.9 9 Oeste 18 Oeste 0 -- -- 87
2019-05-20 11:00:00 12.8 2 Este 6 Noroeste 0 -- -- 92
2019-05-20 10:00:00 11.1 0 Calma 2 Noroeste 0 -- -- 99
2019-05-20 09:00:00 10.1 0 Calma 3 Este 0 -- -- 99
2019-05-20 08:00:00 9.8 0 Calma 3 Sudoeste 0.2 -- -- 99
2019-05-20 07:00:00 9.4 0 Calma 3 Nordeste 0 -- -- 99
2019-05-20 06:00:00 8.9 0 Calma 3 Sur 0 -- -- 99
2019-05-20 05:00:00 9.1 0 Calma 4 Este 0 -- -- 99
2019-05-20 04:00:00 9.1 0 Calma 3 Sudeste 0 -- -- 98
2019-05-20 03:00:00 9.5 0 Calma 3 Sudeste 0 -- -- 98
2019-05-20 02:00:00 10 2 Sudeste 3 Sur 0 -- -- 98
2019-05-20 01:00:00 10.3 0 Calma 5 Sudeste 0 -- -- 98
2019-05-20 00:00:00 10.7 0 Calma 12 Noroeste 0 -- -- 96
2019-05-19 23:00:00 11.6 2 Sudoeste 18 Oeste 0 -- -- 96
2019-05-19 22:00:00 11.8 8 Oeste 17 Noroeste 0.8 -- -- 96
2019-05-19 21:00:00 11.7 5 Oeste 26 Oeste 7.4 -- -- 96
2019-05-19 20:00:00 11.9 2 Este 14 Oeste 7.6 -- -- 96
2019-05-19 19:00:00 12.2 6 Oeste 22 Noroeste 0 -- -- 94
2019-05-19 18:00:00 12.2 10 Oeste 26 Oeste 0.8 -- -- 95
2019-05-19 17:00:00 12 9 Oeste 23 Oeste 0.6 -- -- 95
2019-05-19 16:00:00 11.9 9 Oeste 23 Oeste 3.6 -- -- 96
2019-05-19 15:00:00 11.8 6 Oeste 19 Sudoeste 5.8 -- -- 97
2019-05-19 14:00:00 11.8 9 Oeste 24 Noroeste 5.2 -- -- 97
2019-05-19 13:00:00 11.7 10 Noroeste 22 Oeste 4.4 -- -- 96
2019-05-19 12:00:00 11.9 7 Oeste 37 Oeste 0.6 -- -- 97
2019-05-19 11:00:00 11.8 7 Oeste 17 Sudoeste 1.2 -- -- 98
2019-05-19 10:00:00 10.5 0 Calma 7 Noroeste 2.8 -- -- 99
2019-05-19 09:00:00 10.2 2 Norte 10 Oeste 15.8 -- -- 98
2019-05-19 08:00:00 10.3 0 Calma 11 Sur 4.8 -- -- 98
2019-05-19 07:00:00 10.2 2 Nordeste 7 Norte 0.6 -- -- 98
2019-05-19 06:00:00 10.2 2 Sudoeste 7 Sur 0.6 -- -- 98
2019-05-19 05:00:00 10.2 4 Sudeste 18 Oeste 6.2 -- -- 96
2019-05-19 04:00:00 10.8 6 Oeste 41 Norte 6.2 -- -- 97
2019-05-19 03:00:00 11.3 11 Oeste 26 Nordeste 4.4 -- -- 97
2019-05-19 02:00:00 11.1 7 Oeste 23 Oeste 9.8 -- -- 97
2019-05-19 01:00:00 10.8 9 Oeste 24 Oeste 13.4 -- -- 97
2019-05-19 00:00:00 10.2 2 Sudoeste 14 Sudoeste 9.6 -- -- 96
2019-05-18 23:00:00 10.2 11 Oeste 28 Oeste 4.8 -- -- 94
2019-05-18 22:00:00 10 10 Oeste 28 Sudoeste 5.4 -- -- 95
2019-05-18 21:00:00 9.9 3 Sudoeste 17 Sur 3 -- -- 92
2019-05-18 20:00:00 10.2 3 Sudoeste 13 Sudoeste 1 -- -- 91
2019-05-18 19:00:00 10.4 8 Sudoeste 17 Sudoeste 1.8 -- -- 89
2019-05-18 18:00:00 10.9 3 Oeste 19 Sudoeste 1.6 -- -- 90
2019-05-18 17:00:00 11 0 Calma 11 Sudoeste 2.8 -- -- 90
2019-05-18 16:00:00 11.7 3 Noroeste 15 Oeste 1 -- -- 87
2019-05-18 15:00:00 12 5 Oeste 25 Oeste 0.4 -- -- 81
2019-05-18 14:00:00 12.5 12 Oeste 29 Oeste 0 -- -- 76
2019-05-18 13:00:00 12 7 Oeste 23 Oeste 0 -- -- 78
2019-05-18 12:00:00 12.2 8 Noroeste 20 Noroeste 0 -- -- 76
2019-05-18 11:00:00 10.9 3 Oeste 14 Sudoeste 0 -- -- 84
2019-05-18 10:00:00 10.5 7 Sudoeste 19 Sudoeste 0.6 -- -- 85
2019-05-18 09:00:00 10.3 2 Sudoeste 19 Sudoeste 0 -- -- 83
2019-05-18 08:00:00 10 4 Nordeste 9 Sudoeste 0 -- -- 86
2019-05-18 07:00:00 9.7 2 Sudoeste 17 Sudoeste 0 -- -- 81
2019-05-18 06:00:00 9.6 2 Norte 13 Sudoeste 0 -- -- 87
2019-05-18 05:00:00 10.2 4 Oeste 17 Oeste 0 -- -- 79
2019-05-18 04:00:00 10.4 4 Sudoeste 22 Oeste 0 -- -- 79
2019-05-18 03:00:00 10.3 4 Oeste 20 Oeste 0 -- -- 85
2019-05-18 02:00:00 10 8 Oeste 16 Noroeste 0.6 -- -- 92
2019-05-18 01:00:00 10.2 5 Oeste 16 Oeste 0 -- -- 92
2019-05-18 00:00:00 10.4 6 Oeste 20 Oeste 0 -- -- 91
2019-05-17 23:00:00 10.5 3 Oeste 14 Oeste 2 -- -- 94
2019-05-17 22:00:00 10.9 2 Norte 11 Oeste 2.8 -- -- 94
2019-05-17 21:00:00 11 5 Noroeste 20 Noroeste 5 -- -- 92
2019-05-17 20:00:00 12.7 12 Oeste 26 Oeste 0.6 -- -- 83
2019-05-17 19:00:00 13.7 13 Noroeste 39 Noroeste 0 -- -- 76
2019-05-17 18:00:00 13.8 21 Noroeste 41 Oeste 0 -- -- 78
2019-05-17 17:00:00 13.9 12 Oeste 37 Sudoeste 0 -- -- 81
2019-05-17 16:00:00 14 14 Oeste 33 Noroeste 0 -- -- 80
2019-05-17 15:00:00 13.9 11 Noroeste 42 Oeste 0.2 -- -- 85
2019-05-17 14:00:00 13.3 13 Oeste 34 Oeste 0.2 -- -- 90
2019-05-17 13:00:00 12.5 14 Noroeste 41 Noroeste 2.8 -- -- 92
2019-05-17 12:00:00 12.4 6 Oeste 32 Noroeste 2.6 -- -- 94
2019-05-17 11:00:00 12 5 Oeste 18 Noroeste 1 -- -- 95
2019-05-17 10:00:00 11.8 0 Calma 6 Sudoeste 1.8 -- -- 97
2019-05-17 09:00:00 11.4 0 Calma 5 Nordeste 3.6 -- -- 97
2019-05-17 08:00:00 11.1 3 Nordeste 5 Nordeste 4.8 -- -- 97
2019-05-17 07:00:00 11.1 0 Calma 10 Noroeste 5 -- -- 96
2019-05-17 06:00:00 11.2 4 Sudoeste 22 Oeste 5.8 -- -- 95
2019-05-17 05:00:00 11.3 8 Oeste 18 Oeste 11 -- -- 94
2019-05-17 04:00:00 11.6 9 Oeste 21 Oeste 5 -- -- 92
2019-05-17 03:00:00 12 7 Oeste 24 Oeste 0 -- -- 90
2019-05-17 02:00:00 11.9 9 Oeste 31 Oeste 0.8 -- -- 91
2019-05-17 01:00:00 12.3 10 Oeste 26 Oeste 3.2 -- -- 90
2019-05-17 00:00:00 13.2 9 Noroeste 19 Noroeste 2 -- -- 91